Time,TemperatureF,DewpointF,PressureIn,WindDirection,WindDirectionDegrees,WindSpeedMPH,WindSpeedGustMPH,Humidity,HourlyPrecipIn,Conditions,Clouds,dailyrainin,SoftwareType,DateUTC
2013-04-05 00:00:00,33.8,27.0,29.93,NW,316,0.0,0.0,76,0.00,,OVC060,0.10,VWS V14.01,2013-04-05 04:00:00,
2013-04-05 00:01:00,33.8,27.0,29.93,NNW,343,1.0,1.0,76,0.00,,,0.00,Wunderground v.1.15,2013-04-05 04:01:00,
2013-04-05 00:02:00,33.8,27.0,29.93,NNW,343,0.0,0.0,76,0.00,,OVC060,0.00,VWS V14.01,2013-04-05 04:02:00,
2013-04-05 00:03:00,33.8,27.0,29.93,North,10,0.0,0.0,76,0.00,,OVC060,0.00,VWS V14.01,2013-04-05 04:03:00,
2013-04-05 00:04:00,33.8,26.7,29.93,NNW,346,0.0,0.0,75,0.00,,OVC060,0.00,VWS V14.01,2013-04-05 04:04:00,
2013-04-05 00:05:00,33.8,26.7,29.93,NNW,346,0.0,0.0,75,0.00,,OVC060,0.00,VWS V14.01,2013-04-05 04:05:00,
2013-04-05 00:06:00,33.8,26.7,29.93,NNW,346,0.0,0.0,75,0.00,,OVC060,0.00,VWS V14.01,2013-04-05 04:06:00,
2013-04-05 00:07:00,33.8,26.7,29.93,NNW,346,0.0,0.0,75,0.00,,OVC060,0.00,VWS V14.01,2013-04-05 04:07:00,
2013-04-05 00:08:00,33.8,26.7,29.93,NW,323,0.0,0.0,75,0.00,,OVC060,0.00,VWS V14.01,2013-04-05 04:08:00,
2013-04-05 00:09:00,33.8,26.7,29.93,NNW,343,0.0,0.0,75,0.00,,OVC060,0.00,VWS V14.01,2013-04-05 04:09:00,
2013-04-05 00:10:00,33.8,26.7,29.93,North,354,0.0,0.0,75,0.00,,OVC060,0.00,VWS V14.01,2013-04-05 04:10:00,
2013-04-05 00:11:00,33.8,26.7,29.93,North,354,0.0,0.0,75,0.00,,OVC060,0.00,VWS V14.01,2013-04-05 04:11:00,
2013-04-05 00:12:00,33.8,26.7,29.93,North,359,0.0,0.0,75,0.00,,OVC060,0.00,VWS V14.01,2013-04-05 04:12:00,
2013-04-05 00:13:00,33.8,26.7,29.93,NNW,346,1.0,0.0,75,0.00,,OVC060,0.00,VWS V14.01,2013-04-05 04:13:00,
2013-04-05 00:14:00,33.7,26.6,29.93,NNW,339,10.0,0.0,75,0.00,,OVC060,0.00,VWS V14.01,2013-04-05 04:14:00,
2013-04-05 00:15:00,33.8,26.7,29.94,NW,316,0.0,0.0,75,0.00,,OVC060,0.00,VWS V14.01,2013-04-05 04:15:00,
2013-04-05 00:16:00,33.8,26.7,29.94,NNW,340,0.0,0.0,75,0.00,,OVC060,0.00,VWS V14.01,2013-04-05 04:16:00,
2013-04-05 00:17:00,33.7,26.6,29.94,NNW,330,0.0,0.0,75,0.00,,OVC060,0.00,VWS V14.01,2013-04-05 04:17:00,
2013-04-05 00:18:00,33.7,26.6,29.94,NNW,330,0.0,0.0,75,0.00,,OVC060,0.00,VWS V14.01,2013-04-05 04:18:00,
2013-04-05 00:19:00,33.7,26.6,29.94,North,349,0.0,0.0,75,0.00,,OVC060,0.00,VWS V14.01,2013-04-05 04:19:00,
2013-04-05 00:20:00,33.7,26.6,29.94,North,352,0.0,0.0,75,0.00,,OVC060,0.00,VWS V14.01,2013-04-05 04:20:00,
2013-04-05 00:21:00,33.7,26.6,29.94,North,350,0.0,0.0,75,0.00,,OVC060,0.00,VWS V14.01,2013-04-05 04:21:00,
2013-04-05 00:31:00,33.5,24.8,29.94,NNW,338,2.0,3.0,70,0.00,,OVC060,0.00,VWS V14.01,2013-04-05 04:31:00,
2013-04-05 00:36:00,33.5,23.7,29.95,North,8,0.0,3.0,67,0.00,,OVC060,0.00,VWS V14.01,2013-04-05 04:36:00,
2013-04-05 00:41:00,33.4,23.6,29.95,North,359,0.0,3.0,67,0.00,,OVC060,0.00,VWS V14.01,2013-04-05 04:41:00,
2013-04-05 00:46:00,33.2,23.5,29.95,North,357,0.0,3.0,67,0.00,,OVC060,0.00,VWS V14.01,2013-04-05 04:46:00,
2013-04-05 00:51:00,32.9,22.8,29.95,North,359,0.0,3.0,66,0.00,,OVC060,0.00,VWS V14.01,2013-04-05 04:51:00,
2013-04-05 00:56:00,32.7,22.6,29.95,NW,323,0.0,3.0,66,0.00,,OVC060,0.00,VWS V14.01,2013-04-05 04:56:00,
2013-04-05 01:01:00,32.5,23.5,29.95,NNW,336,0.0,3.0,69,0.00,,SCT060,0.00,VWS V14.01,2013-04-05 05:01:00,
2013-04-05 01:06:00,32.1,23.1,29.95,NNW,333,0.0,3.0,69,0.00,,SCT060,0.00,VWS V14.01,2013-04-05 05:06:00,
2013-04-05 01:11:00,31.8,23.5,29.95,NNW,332,0.0,3.0,71,0.00,,SCT060,0.00,VWS V14.01,2013-04-05 05:11:00,
2013-04-05 01:16:00,31.8,23.5,29.95,NW,326,0.0,3.0,71,0.00,,SCT060,0.00,VWS V14.01,2013-04-05 05:16:00,
2013-04-05 01:21:00,31.0,22.7,29.95,NNW,330,0.0,3.0,71,0.00,,CLR,0.00,VWS V14.01,2013-04-05 05:21:00,
2013-04-05 01:26:00,31.0,23.4,29.95,WNW,301,0.0,3.0,73,0.00,,CLR,0.00,VWS V14.01,2013-04-05 05:26:00,
2013-04-05 01:31:00,30.9,23.9,29.95,NNW,346,0.0,3.0,75,0.00,,CLR,0.00,VWS V14.01,2013-04-05 05:31:00,
2013-04-05 01:36:00,30.9,23.9,29.95,NNW,328,0.0,3.0,75,0.00,,CLR,0.00,VWS V14.01,2013-04-05 05:36:00,
2013-04-05 01:41:00,30.7,23.7,29.95,NW,315,0.0,3.0,75,0.00,,CLR,0.00,VWS V14.01,2013-04-05 05:41:00,
2013-04-05 01:47:00,30.7,23.7,29.96,North,356,0.0,3.0,75,0.00,,CLR,0.00,VWS V14.01,2013-04-05 05:47:00,
2013-04-05 01:52:00,30.7,24.4,29.96,NW,312,0.0,3.0,77,0.00,,CLR,0.00,VWS V14.01,2013-04-05 05:52:00,
2013-04-05 01:57:00,30.7,24.0,29.96,NNW,339,0.0,3.0,76,0.00,,CLR,0.00,VWS V14.01,2013-04-05 05:57:00,
2013-04-05 02:02:00,30.7,23.7,29.96,North,356,7.0,7.0,75,0.00,,CLR,0.00,VWS V14.01,2013-04-05 06:02:00,
2013-04-05 02:07:00,30.7,23.4,29.96,North,350,0.0,3.0,74,0.00,,CLR,0.00,VWS V14.01,2013-04-05 06:07:00,
2013-04-05 02:12:00,30.6,23.3,29.96,NNW,340,0.0,3.0,74,0.00,,CLR,0.00,VWS V14.01,2013-04-05 06:12:00,
2013-04-05 02:17:00,30.6,23.3,29.97,NNW,346,0.0,3.0,74,0.00,,CLR,0.00,VWS V14.01,2013-04-05 06:17:00,
2013-04-05 02:22:00,30.3,23.0,29.97,NW,318,0.0,3.0,74,0.00,,CLR,0.00,VWS V14.01,2013-04-05 06:22:00,
2013-04-05 02:27:00,30.1,22.8,29.97,North,350,0.0,3.0,74,0.00,,CLR,0.00,VWS V14.01,2013-04-05 06:27:00,
2013-04-05 02:32:00,30.1,23.5,29.97,NW,319,1.0,3.0,76,0.00,,CLR,0.00,VWS V14.01,2013-04-05 06:32:00,
2013-04-05 02:37:00,30.1,22.8,29.97,NNW,342,0.0,3.0,74,0.00,,CLR,0.00,VWS V14.01,2013-04-05 06:37:00,
2013-04-05 02:42:00,30.1,22.8,29.97,NNW,342,0.0,3.0,74,0.00,,CLR,0.00,VWS V14.01,2013-04-05 06:42:00,
2013-04-05 02:47:00,30.3,22.4,29.97,NNW,332,0.0,3.0,72,0.00,,CLR,0.00,VWS V14.01,2013-04-05 06:47:00,
2013-04-05 02:52:00,30.3,21.4,29.97,NNW,339,0.0,3.0,69,0.00,,CLR,0.00,VWS V14.01,2013-04-05 06:52:00,
2013-04-05 02:58:00,30.4,21.5,29.97,WNW,302,0.0,3.0,69,0.00,,CLR,0.00,VWS V14.01,2013-04-05 06:58:00,
2013-04-05 03:03:00,30.4,21.5,29.97,WNW,289,0.0,3.0,69,0.00,,CLR,0.00,VWS V14.01,2013-04-05 07:03:00,
2013-04-05 03:08:00,30.4,21.5,29.97,NNW,347,5.0,5.0,69,0.00,,CLR,0.00,VWS V14.01,2013-04-05 07:08:00,
2013-04-05 03:13:00,30.4,21.5,29.97,West,280,0.0,3.0,69,0.00,,CLR,0.00,VWS V14.01,2013-04-05 07:13:00,
2013-04-05 03:18:00,30.4,21.1,29.98,NW,306,2.0,3.0,68,0.00,,CLR,0.00,VWS V14.01,2013-04-05 07:18:00,
2013-04-05 03:23:00,30.4,19.7,29.98,NNW,336,0.0,3.0,64,0.00,,CLR,0.00,VWS V14.01,2013-04-05 07:23:00,
2013-04-05 03:28:00,30.4,20.8,29.98,NNW,332,0.0,3.0,67,0.00,,CLR,0.00,VWS V14.01,2013-04-05 07:28:00,
2013-04-05 03:33:00,30.3,20.7,29.98,NW,319,2.0,3.0,67,0.00,,CLR,0.00,VWS V14.01,2013-04-05 07:33:00,
2013-04-05 03:38:00,30.1,20.5,29.98,NNW,328,0.0,3.0,67,0.00,,CLR,0.00,VWS V14.01,2013-04-05 07:38:00,
2013-04-05 03:43:00,30.1,20.8,29.98,NNW,329,0.0,3.0,68,0.00,,CLR,0.00,VWS V14.01,2013-04-05 07:43:00,
2013-04-05 03:48:00,30.1,19.8,29.98,NNW,342,0.0,3.0,65,0.00,,CLR,0.00,VWS V14.01,2013-04-05 07:48:00,
2013-04-05 03:53:00,30.1,19.8,29.98,NW,312,5.0,5.0,65,0.00,,CLR,0.00,VWS V14.01,2013-04-05 07:53:00,
2013-04-05 03:59:00,30.1,19.8,29.98,NNW,332,0.0,3.0,65,0.00,,CLR,0.00,VWS V14.01,2013-04-05 07:59:00,
2013-04-05 04:04:00,30.0,19.7,29.99,WNW,294,2.0,3.0,65,0.00,,CLR,0.00,VWS V14.01,2013-04-05 08:04:00,
2013-04-05 04:09:00,30.1,19.8,29.99,North,354,0.0,3.0,65,0.00,,CLR,0.00,VWS V14.01,2013-04-05 08:09:00,
2013-04-05 04:14:00,30.0,19.7,29.99,WNW,296,0.0,3.0,65,0.00,,CLR,0.00,VWS V14.01,2013-04-05 08:14:00,
2013-04-05 04:19:00,30.1,19.8,29.99,NW,322,0.0,3.0,65,0.00,,CLR,0.00,VWS V14.01,2013-04-05 08:19:00,
2013-04-05 04:24:00,30.0,19.7,29.99,NW,313,0.0,3.0,65,0.00,,CLR,0.00,VWS V14.01,2013-04-05 08:24:00,
2013-04-05 04:29:00,30.0,19.3,30.00,NNW,340,0.0,3.0,64,0.00,,CLR,0.00,VWS V14.01,2013-04-05 08:29:00,
2013-04-05 04:34:00,29.8,19.1,30.00,NNW,337,0.0,3.0,64,0.00,,CLR,0.00,VWS V14.01,2013-04-05 08:34:00,
2013-04-05 04:40:00,29.8,19.5,30.00,WNW,296,0.0,3.0,65,0.00,,CLR,0.00,VWS V14.01,2013-04-05 08:40:00,
2013-04-05 04:45:00,29.8,19.8,30.00,NW,306,0.0,3.0,66,0.00,,CLR,0.00,VWS V14.01,2013-04-05 08:45:00,
2013-04-05 04:50:00,29.8,19.8,30.00,NNW,332,0.0,3.0,66,0.00,,CLR,0.00,VWS V14.01,2013-04-05 08:50:00,
2013-04-05 04:55:00,29.5,20.3,30.00,NNW,337,0.0,3.0,68,0.00,,CLR,0.00,VWS V14.01,2013-04-05 08:55:00,
2013-04-05 05:00:00,29.4,20.2,30.01,NW,325,0.0,3.0,68,0.00,,CLR,0.00,VWS V14.01,2013-04-05 09:00:00,
2013-04-05 05:05:00,29.4,19.5,30.01,NNW,339,0.0,3.0,66,0.00,,CLR,0.00,VWS V14.01,2013-04-05 09:05:00,
2013-04-05 05:11:00,29.4,19.8,30.01,NNW,330,0.0,3.0,67,0.00,,CLR,0.00,VWS V14.01,2013-04-05 09:11:00,
2013-04-05 05:16:00,29.4,19.8,30.01,NNW,343,10.0,10.0,67,0.00,,CLR,0.00,VWS V14.01,2013-04-05 09:16:00,
2013-04-05 05:21:00,29.4,19.5,30.01,NW,322,0.0,3.0,66,0.00,,CLR,0.00,VWS V14.01,2013-04-05 09:21:00,
2013-04-05 05:26:00,29.5,19.9,30.01,West,281,0.0,3.0,67,0.00,,CLR,0.00,VWS V14.01,2013-04-05 09:26:00,
2013-04-05 05:31:00,29.4,19.8,30.01,NNW,347,0.0,3.0,67,0.00,,CLR,0.00,VWS V14.01,2013-04-05 09:31:00,
2013-04-05 05:36:00,29.4,19.8,30.01,NW,304,0.0,3.0,67,0.00,,CLR,0.00,VWS V14.01,2013-04-05 09:36:00,
2013-04-05 05:41:00,29.4,19.8,30.01,NW,320,0.0,3.0,67,0.00,,CLR,0.00,VWS V14.01,2013-04-05 09:41:00,
2013-04-05 05:46:00,29.4,20.2,30.02,NNW,329,0.0,3.0,68,0.00,,CLR,0.00,VWS V14.01,2013-04-05 09:46:00,
2013-04-05 05:51:00,29.3,19.7,30.02,NNW,332,0.0,3.0,67,0.00,,CLR,0.00,VWS V14.01,2013-04-05 09:51:00,
2013-04-05 05:56:00,29.3,19.7,30.02,WNW,298,0.0,3.0,67,0.00,,CLR,0.00,VWS V14.01,2013-04-05 09:56:00,
2013-04-05 06:01:00,29.1,19.9,30.03,NNW,344,0.0,3.0,68,0.00,,SCT036,0.00,VWS V14.01,2013-04-05 10:01:00,
2013-04-05 06:06:00,29.1,19.9,30.03,NNW,343,0.0,3.0,68,0.00,,SCT036,0.00,VWS V14.01,2013-04-05 10:06:00,
2013-04-05 06:12:00,29.1,19.5,30.03,NNW,336,0.0,3.0,67,0.00,,SCT036,0.00,VWS V14.01,2013-04-05 10:12:00,
2013-04-05 06:17:00,29.1,19.5,30.03,NNW,328,0.0,3.0,67,0.00,,SCT036,0.00,VWS V14.01,2013-04-05 10:17:00,
2013-04-05 06:22:00,29.3,19.7,30.03,NNW,344,1.0,3.0,67,0.00,,BKN038,0.00,VWS V14.01,2013-04-05 10:22:00,
2013-04-05 06:27:00,29.3,19.7,30.03,NNW,336,0.0,3.0,67,0.00,,BKN038,0.00,VWS V14.01,2013-04-05 10:27:00,
2013-04-05 06:32:00,29.3,19.7,30.04,NNW,329,6.0,6.0,67,0.00,,BKN038,0.00,VWS V14.01,2013-04-05 10:32:00,
2013-04-05 06:37:00,29.4,19.8,30.04,NNW,332,0.0,3.0,67,0.00,,BKN038,0.00,VWS V14.01,2013-04-05 10:37:00,
2013-04-05 06:42:00,29.4,19.8,30.04,NNW,343,0.0,3.0,67,0.00,,BKN039,0.00,VWS V14.01,2013-04-05 10:42:00,
2013-04-05 06:47:00,29.4,19.8,30.05,NNW,342,0.0,3.0,67,0.00,,BKN039,0.00,VWS V14.01,2013-04-05 10:47:00,
2013-04-05 06:52:00,29.4,19.8,30.05,NNW,342,0.0,3.0,67,0.00,,BKN039,0.00,VWS V14.01,2013-04-05 10:52:00,
2013-04-05 06:57:00,29.4,19.8,30.05,NW,319,6.0,6.0,67,0.00,,BKN039,0.00,VWS V14.01,2013-04-05 10:57:00,
2013-04-05 07:02:00,29.3,19.7,30.06,North,356,0.0,3.0,67,0.00,,BKN039,0.00,VWS V14.01,2013-04-05 11:02:00,
2013-04-05 07:07:00,29.3,18.6,30.06,NNW,339,5.0,5.0,64,0.00,,BKN039,0.00,VWS V14.01,2013-04-05 11:07:00,
2013-04-05 07:12:00,29.5,18.8,30.06,NNW,343,7.0,7.0,64,0.00,,BKN039,0.00,VWS V14.01,2013-04-05 11:12:00,
2013-04-05 07:17:00,29.5,18.5,30.07,NW,313,0.0,3.0,63,0.00,,BKN039,0.00,VWS V14.01,2013-04-05 11:17:00,
2013-04-05 07:22:00,29.5,18.5,30.07,NNW,344,0.0,3.0,63,0.00,,BKN039,0.00,VWS V14.01,2013-04-05 11:22:00,
2013-04-05 07:27:00,29.7,18.7,30.07,North,0,0.0,3.0,63,0.00,,BKN039,0.00,VWS V14.01,2013-04-05 11:27:00,
2013-04-05 07:32:00,29.7,19.0,30.08,North,0,0.0,3.0,64,0.00,,BKN039,0.00,VWS V14.01,2013-04-05 11:32:00,
2013-04-05 07:37:00,29.7,19.0,30.08,North,359,1.0,3.0,64,0.00,,BKN039,0.00,VWS V14.01,2013-04-05 11:37:00,
2013-04-05 07:42:00,29.7,19.0,30.08,North,357,6.0,6.0,64,0.00,,BKN042,0.00,VWS V14.01,2013-04-05 11:42:00,
2013-04-05 07:48:00,29.7,19.0,30.08,NNW,340,6.0,6.0,64,0.00,,BKN042,0.00,VWS V14.01,2013-04-05 11:48:00,
2013-04-05 07:53:00,29.8,18.8,30.08,NNE,20,0.0,3.0,63,0.00,,BKN042,0.00,VWS V14.01,2013-04-05 11:53:00,
2013-04-05 07:58:00,29.8,18.8,30.08,NW,315,0.0,3.0,63,0.00,,BKN042,0.00,VWS V14.01,2013-04-05 11:58:00,
2013-04-05 08:03:00,29.8,18.8,30.09,NNW,343,11.0,11.0,63,0.00,,OVC041,0.00,VWS V14.01,2013-04-05 12:03:00,
2013-04-05 08:08:00,29.7,18.7,30.09,NNW,330,0.0,3.0,63,0.00,,OVC041,0.00,VWS V14.01,2013-04-05 12:08:00,
2013-04-05 08:13:00,29.5,17.0,30.09,NW,313,2.0,3.0,59,0.00,,OVC041,0.00,VWS V14.01,2013-04-05 12:13:00,
2013-04-05 08:18:00,29.5,17.0,30.10,NNW,339,0.0,3.0,59,0.00,,OVC041,0.00,VWS V14.01,2013-04-05 12:18:00,
2013-04-05 08:23:00,29.7,17.1,30.10,NNW,337,0.0,3.0,59,0.00,,BKN038,0.00,VWS V14.01,2013-04-05 12:23:00,
2013-04-05 08:28:00,29.8,17.2,30.10,North,359,0.0,3.0,59,0.00,,BKN038,0.00,VWS V14.01,2013-04-05 12:28:00,
2013-04-05 08:33:00,30.3,17.7,30.10,NW,322,0.0,3.0,59,0.00,,BKN038,0.00,VWS V14.01,2013-04-05 12:33:00,
2013-04-05 08:38:00,30.1,17.5,30.10,NW,320,0.0,3.0,59,0.00,,BKN038,0.00,VWS V14.01,2013-04-05 12:38:00,
2013-04-05 08:43:00,30.1,17.5,30.10,West,272,0.0,3.0,59,0.00,,BKN039,0.00,VWS V14.01,2013-04-05 12:43:00,
2013-04-05 08:49:00,29.8,17.2,30.11,North,359,11.0,11.0,59,0.00,,BKN039,0.00,VWS V14.01,2013-04-05 12:49:00,
2013-04-05 08:54:00,30.7,18.1,30.11,North,350,5.0,5.0,59,0.00,,BKN039,0.00,VWS V14.01,2013-04-05 12:54:00,
2013-04-05 08:59:00,30.9,18.3,30.11,WNW,301,0.0,3.0,59,0.00,,BKN039,0.00,VWS V14.01,2013-04-05 12:59:00,
2013-04-05 09:04:00,31.3,18.6,30.11,WNW,301,0.0,3.0,59,0.00,,SCT040,0.00,VWS V14.01,2013-04-05 13:04:00,
2013-04-05 09:09:00,31.3,18.6,30.11,NW,323,13.0,13.0,59,0.00,,SCT040,0.00,VWS V14.01,2013-04-05 13:09:00,
2013-04-05 09:14:00,31.3,18.6,30.11,NNW,336,0.0,3.0,59,0.00,,SCT040,0.00,VWS V14.01,2013-04-05 13:14:00,
2013-04-05 09:19:00,31.6,18.9,30.11,NNW,336,0.0,3.0,59,0.00,,SCT040,0.00,VWS V14.01,2013-04-05 13:19:00,
2013-04-05 09:24:00,31.6,18.9,30.11,North,353,8.0,8.0,59,0.00,,BKN034,0.00,VWS V14.01,2013-04-05 13:24:00,
2013-04-05 09:29:00,31.6,18.9,30.12,NNW,339,0.0,3.0,59,0.00,,BKN034,0.00,VWS V14.01,2013-04-05 13:29:00,
2013-04-05 09:35:00,30.6,18.0,30.12,North,3,0.0,3.0,59,0.00,,BKN034,0.00,VWS V14.01,2013-04-05 13:35:00,
2013-04-05 09:40:00,30.4,17.8,30.12,NNW,342,2.0,3.0,59,0.00,,BKN034,0.00,VWS V14.01,2013-04-05 13:40:00,
2013-04-05 09:45:00,30.4,17.8,30.12,NNW,335,10.0,10.0,59,0.00,,BKN034,0.00,VWS V14.01,2013-04-05 13:45:00,
2013-04-05 09:50:00,30.6,18.0,30.12,NNW,335,10.0,10.0,59,0.00,,BKN034,0.00,VWS V14.01,2013-04-05 13:50:00,
2013-04-05 09:55:00,30.6,18.0,30.12,NNW,335,10.0,10.0,59,0.00,,BKN034,0.00,VWS V14.01,2013-04-05 13:55:00,
2013-04-05 10:00:00,30.6,18.0,30.13,NW,315,17.0,17.0,59,0.00,,SCT034,0.00,VWS V14.01,2013-04-05 14:00:00,
2013-04-05 10:05:00,30.6,18.0,30.13,NNW,336,0.0,3.0,59,0.00,,SCT034,0.00,VWS V14.01,2013-04-05 14:05:00,
2013-04-05 10:10:00,30.6,18.0,30.13,NNW,343,11.0,11.0,59,0.00,,SCT034,0.00,VWS V14.01,2013-04-05 14:10:00,
2013-04-05 10:15:00,30.6,14.6,30.13,NW,313,8.0,8.0,51,0.00,,SCT034,0.00,VWS V14.01,2013-04-05 14:15:00,
2013-04-05 10:20:00,31.5,15.5,30.13,NW,313,8.0,8.0,51,0.00,,SCT032,0.00,VWS V14.01,2013-04-05 14:20:00,
2013-04-05 10:25:00,31.5,15.5,30.13,NNE,14,7.0,7.0,51,0.00,,SCT032,0.00,VWS V14.01,2013-04-05 14:25:00,
2013-04-05 10:30:00,30.9,14.9,30.14,NNE,14,7.0,7.0,51,0.00,,SCT032,0.00,VWS V14.01,2013-04-05 14:30:00,
2013-04-05 10:35:00,30.9,14.9,30.14,North,354,0.0,3.0,51,0.00,,SCT032,0.00,VWS V14.01,2013-04-05 14:35:00,
2013-04-05 10:41:00,30.9,14.9,30.14,North,354,0.0,3.0,51,0.00,,SCT032,0.00,VWS V14.01,2013-04-05 14:41:00,
2013-04-05 10:46:00,30.9,14.9,30.15,WNW,302,0.0,3.0,51,0.00,,SCT032,0.00,VWS V14.01,2013-04-05 14:46:00,
2013-04-05 10:51:00,30.9,14.9,30.15,NE,40,7.0,7.0,51,0.00,,SCT032,0.00,VWS V14.01,2013-04-05 14:51:00,
2013-04-05 10:56:00,30.7,14.7,30.15,NE,40,7.0,7.0,51,0.00,,SCT032,0.00,VWS V14.01,2013-04-05 14:56:00,
2013-04-05 11:01:00,30.9,14.9,30.15,NNE,13,5.0,5.0,51,0.00,,SCT032,0.00,VWS V14.01,2013-04-05 15:01:00,
2013-04-05 11:06:00,30.9,14.9,30.15,North,0,5.0,5.0,51,0.00,,SCT032,0.00,VWS V14.01,2013-04-05 15:06:00,
2013-04-05 11:12:00,30.9,14.9,30.15,North,0,5.0,5.0,51,0.00,,SCT032,0.00,VWS V14.01,2013-04-05 15:12:00,
2013-04-05 11:17:00,31.9,15.8,30.15,North,3,5.0,5.0,51,0.00,,SCT032,0.00,VWS V14.01,2013-04-05 15:17:00,
2013-04-05 11:22:00,31.9,15.8,30.15,NW,311,8.0,8.0,51,0.00,,BKN032,0.00,VWS V14.01,2013-04-05 15:22:00,
2013-04-05 11:27:00,31.9,15.8,30.15,North,359,0.0,3.0,51,0.00,,BKN032,0.00,VWS V14.01,2013-04-05 15:27:00,
2013-04-05 11:32:00,31.6,15.1,30.16,North,359,0.0,3.0,50,0.00,,BKN032,0.00,VWS V14.01,2013-04-05 15:32:00,
2013-04-05 11:37:00,31.5,15.0,30.16,NNE,14,0.0,3.0,50,0.00,,BKN032,0.00,VWS V14.01,2013-04-05 15:37:00,
2013-04-05 11:42:00,31.5,15.0,30.16,NW,325,8.0,8.0,50,0.00,,BKN034,0.00,VWS V14.01,2013-04-05 15:42:00,
2013-04-05 11:47:00,31.5,15.0,30.16,North,7,7.0,7.0,50,0.00,,BKN034,0.00,VWS V14.01,2013-04-05 15:47:00,
2013-04-05 11:52:00,31.5,15.0,30.16,North,7,7.0,7.0,50,0.00,,BKN034,0.00,VWS V14.01,2013-04-05 15:52:00,
2013-04-05 11:57:00,31.5,15.0,30.16,North,349,0.0,3.0,50,0.00,,BKN034,0.00,VWS V14.01,2013-04-05 15:57:00,
2013-04-05 12:02:00,31.5,15.0,30.16,NNW,339,0.0,3.0,50,0.00,,SCT032,0.00,VWS V14.01,2013-04-05 16:02:00,
2013-04-05 12:08:00,31.5,15.0,30.16,NW,322,0.0,3.0,50,0.00,,SCT032,0.00,VWS V14.01,2013-04-05 16:08:00,
2013-04-05 12:13:00,31.5,15.0,30.16,WNW,295,5.0,5.0,50,0.00,,SCT032,0.00,VWS V14.01,2013-04-05 16:13:00,
2013-04-05 12:18:00,32.8,15.3,30.17,WNW,291,5.0,5.0,48,0.00,,SCT032,0.00,VWS V14.01,2013-04-05 16:18:00,
2013-04-05 12:23:00,32.8,15.3,30.17,North,11,0.0,3.0,48,0.00,,SCT032,0.00,VWS V14.01,2013-04-05 16:23:00,
2013-04-05 12:28:00,33.2,15.6,30.17,North,4,0.0,3.0,48,0.00,,SCT032,0.00,VWS V14.01,2013-04-05 16:28:00,
2013-04-05 12:33:00,33.4,15.8,30.17,NNE,23,7.0,7.0,48,0.00,,SCT032,0.00,VWS V14.01,2013-04-05 16:33:00,
2013-04-05 12:38:00,33.5,14.4,30.17,NNW,330,0.0,3.0,45,0.00,,SCT032,0.00,VWS V14.01,2013-04-05 16:38:00,
2013-04-05 12:43:00,32.9,15.4,30.17,ENE,61,5.0,5.0,48,0.00,,CLR,0.00,VWS V14.01,2013-04-05 16:43:00,
2013-04-05 12:48:00,32.9,13.4,30.16,NW,305,0.0,3.0,44,0.00,,CLR,0.00,VWS V14.01,2013-04-05 16:48:00,
2013-04-05 12:53:00,33.1,13.6,30.16,NNE,21,7.0,7.0,44,0.00,,CLR,0.00,VWS V14.01,2013-04-05 16:53:00,
2013-04-05 12:58:00,32.4,12.9,30.16,North,354,3.0,3.0,44,0.00,,CLR,0.00,VWS V14.01,2013-04-05 16:58:00,
2013-04-05 13:03:00,32.4,12.9,30.16,NNW,329,10.0,10.0,44,0.00,,CLR,0.00,VWS V14.01,2013-04-05 17:03:00,
2013-04-05 13:08:00,32.4,12.9,30.16,WNW,292,0.0,3.0,44,0.00,,CLR,0.00,VWS V14.01,2013-04-05 17:08:00,
2013-04-05 13:13:00,33.4,13.9,30.16,North,359,4.0,4.0,44,0.00,,CLR,0.00,VWS V14.01,2013-04-05 17:13:00,
2013-04-05 13:18:00,33.5,13.9,30.16,North,7,1.0,3.0,44,0.00,,CLR,0.00,VWS V14.01,2013-04-05 17:18:00,
2013-04-05 13:23:00,33.8,13.7,30.16,NNW,343,12.0,12.0,43,0.00,,CLR,0.00,VWS V14.01,2013-04-05 17:23:00,
2013-04-05 13:28:00,33.8,13.7,30.16,NW,316,4.0,4.0,43,0.00,,CLR,0.00,VWS V14.01,2013-04-05 17:28:00,
2013-04-05 13:33:00,34.1,15.5,30.16,NW,323,7.0,7.0,46,0.00,,CLR,0.00,VWS V14.01,2013-04-05 17:33:00,
2013-04-05 13:39:00,34.7,16.0,30.16,North,349,0.0,3.0,46,0.00,,CLR,0.00,VWS V14.01,2013-04-05 17:39:00,
2013-04-05 13:44:00,35.2,15.5,30.16,NW,313,4.0,4.0,44,0.00,,CLR,0.00,VWS V14.01,2013-04-05 17:44:00,
2013-04-05 13:49:00,35.3,15.6,30.15,North,357,4.0,4.0,44,0.00,,CLR,0.00,VWS V14.01,2013-04-05 17:49:00,
2013-04-05 13:54:00,34.4,14.8,30.15,NW,315,0.0,3.0,44,0.00,,CLR,0.00,VWS V14.01,2013-04-05 17:54:00,
2013-04-05 14:00:00,34.4,14.8,30.15,NE,52,0.0,3.0,44,0.00,,CLR,0.00,VWS V14.01,2013-04-05 18:00:00,
2013-04-05 14:05:00,34.1,14.5,30.15,WNW,282,0.0,3.0,44,0.00,,CLR,0.00,VWS V14.01,2013-04-05 18:05:00,
2013-04-05 14:10:00,34.1,14.5,30.15,NNW,346,0.0,3.0,44,0.00,,CLR,0.00,VWS V14.01,2013-04-05 18:10:00,
2013-04-05 14:15:00,34.1,14.5,30.16,NW,316,0.0,3.0,44,0.00,,CLR,0.00,VWS V14.01,2013-04-05 18:15:00,
2013-04-05 14:20:00,35.3,15.6,30.16,West,271,2.0,3.0,44,0.00,,CLR,0.00,VWS V14.01,2013-04-05 18:20:00,
2013-04-05 14:25:00,35.3,15.6,30.16,NW,313,0.0,3.0,44,0.00,,CLR,0.00,VWS V14.01,2013-04-05 18:25:00,
2013-04-05 14:30:00,35.0,15.3,30.16,NW,312,0.0,3.0,44,0.00,,CLR,0.00,VWS V14.01,2013-04-05 18:30:00,
2013-04-05 14:35:00,35.0,15.3,30.16,North,11,0.0,3.0,44,0.00,,CLR,0.00,VWS V14.01,2013-04-05 18:35:00,
2013-04-05 14:40:00,35.0,15.3,30.16,North,11,0.0,3.0,44,0.00,,CLR,0.00,VWS V14.01,2013-04-05 18:40:00,
2013-04-05 14:45:00,34.7,15.0,30.16,North,8,0.0,3.0,44,0.00,,CLR,0.00,VWS V14.01,2013-04-05 18:45:00,
2013-04-05 14:50:00,34.7,15.0,30.16,North,8,0.0,3.0,44,0.00,,CLR,0.00,VWS V14.01,2013-04-05 18:50:00,
2013-04-05 14:55:00,35.0,15.3,30.16,WNW,287,3.0,3.0,44,0.00,,CLR,0.00,VWS V14.01,2013-04-05 18:55:00,
2013-04-05 15:00:00,35.0,15.3,30.15,North,349,0.0,3.0,44,0.00,,CLR,0.00,VWS V14.01,2013-04-05 19:00:00,
2013-04-05 15:05:00,35.0,15.3,30.15,West,270,10.0,10.0,44,0.00,,CLR,0.00,VWS V14.01,2013-04-05 19:05:00,
2013-04-05 15:10:00,35.3,15.6,30.15,WNW,291,2.0,3.0,44,0.00,,CLR,0.00,VWS V14.01,2013-04-05 19:10:00,
2013-04-05 15:15:00,35.6,15.9,30.15,WNW,282,0.0,3.0,44,0.00,,CLR,0.00,VWS V14.01,2013-04-05 19:15:00,
2013-04-05 15:21:00,36.0,16.2,30.15,West,268,0.0,3.0,44,0.00,,CLR,0.00,VWS V14.01,2013-04-05 19:21:00,
2013-04-05 15:26:00,36.0,14.6,30.15,NW,316,7.0,7.0,41,0.00,,CLR,0.00,VWS V14.01,2013-04-05 19:26:00,
2013-04-05 15:30:00,36.5,15.6,30.14,NNE,17,2.0,3.0,42,0.00,,CLR,0.00,VWS V14.01,2013-04-05 19:30:00,
2013-04-05 15:36:00,36.5,15.6,30.14,NNW,333,0.0,3.0,42,0.00,,CLR,0.00,VWS V14.01,2013-04-05 19:36:00,
2013-04-05 15:41:00,36.0,15.1,30.14,WNW,288,0.0,3.0,42,0.00,,CLR,0.00,VWS V14.01,2013-04-05 19:41:00,
2013-04-05 15:46:00,36.3,15.4,30.14,SSW,209,2.0,3.0,42,0.00,,CLR,0.00,VWS V14.01,2013-04-05 19:46:00,
2013-04-05 15:51:00,36.5,15.6,30.14,SW,216,0.0,3.0,42,0.00,,CLR,0.00,VWS V14.01,2013-04-05 19:51:00,
2013-04-05 15:56:00,35.9,15.1,30.14,NW,315,0.0,3.0,42,0.00,,CLR,0.00,VWS V14.01,2013-04-05 19:56:00,
2013-04-05 16:02:00,35.9,15.1,30.13,NW,304,0.0,3.0,42,0.00,,CLR,0.00,VWS V14.01,2013-04-05 20:02:00,
2013-04-05 16:07:00,35.9,15.1,30.13,NE,49,5.0,5.0,42,0.00,,CLR,0.00,VWS V14.01,2013-04-05 20:07:00,
2013-04-05 16:12:00,35.8,15.5,30.13,WNW,288,0.0,3.0,43,0.00,,CLR,0.00,VWS V14.01,2013-04-05 20:12:00,
2013-04-05 16:17:00,36.3,16.0,30.14,West,278,2.0,3.0,43,0.00,,CLR,0.00,VWS V14.01,2013-04-05 20:17:00,
2013-04-05 16:22:00,36.3,16.0,30.14,NNW,339,0.0,3.0,43,0.00,,CLR,0.00,VWS V14.01,2013-04-05 20:22:00,
2013-04-05 16:27:00,35.5,15.2,30.14,North,359,1.0,3.0,43,0.00,,CLR,0.00,VWS V14.01,2013-04-05 20:27:00,
2013-04-05 16:32:00,35.0,14.8,30.13,NW,320,0.0,3.0,43,0.00,,CLR,0.00,VWS V14.01,2013-04-05 20:32:00,
2013-04-05 16:37:00,35.0,15.3,30.13,NNW,335,2.0,3.0,44,0.00,,CLR,0.00,VWS V14.01,2013-04-05 20:37:00,
2013-04-05 16:42:00,34.9,15.2,30.13,North,6,2.0,3.0,44,0.00,,CLR,0.00,VWS V14.01,2013-04-05 20:42:00,
2013-04-05 16:47:00,34.9,15.2,30.13,West,275,0.0,3.0,44,0.00,,CLR,0.00,VWS V14.01,2013-04-05 20:47:00,
2013-04-05 16:53:00,34.9,15.2,30.13,NE,38,2.0,3.0,44,0.00,,CLR,0.00,VWS V14.01,2013-04-05 20:53:00,
2013-04-05 16:58:00,34.9,15.2,30.13,NNW,347,7.0,7.0,44,0.00,,CLR,0.00,VWS V14.01,2013-04-05 20:58:00,
2013-04-05 17:03:00,35.8,16.0,30.14,NW,323,1.0,3.0,44,0.00,,CLR,0.00,VWS V14.01,2013-04-05 21:03:00,
2013-04-05 17:08:00,35.8,16.0,30.14,West,278,0.0,3.0,44,0.00,,CLR,0.00,VWS V14.01,2013-04-05 21:08:00,
2013-04-05 17:13:00,36.0,16.2,30.14,NW,306,0.0,3.0,44,0.00,,CLR,0.00,VWS V14.01,2013-04-05 21:13:00,
2013-04-05 17:18:00,35.9,16.1,30.13,NW,313,0.0,3.0,44,0.00,,CLR,0.00,VWS V14.01,2013-04-05 21:18:00,
2013-04-05 17:23:00,35.3,14.5,30.13,NW,315,0.0,3.0,42,0.00,,CLR,0.00,VWS V14.01,2013-04-05 21:23:00,
2013-04-05 17:28:00,35.3,15.1,30.13,NW,312,7.0,7.0,43,0.00,,CLR,0.00,VWS V14.01,2013-04-05 21:28:00,
2013-04-05 17:33:00,34.7,14.5,30.14,WSW,253,2.0,3.0,43,0.00,,CLR,0.00,VWS V14.01,2013-04-05 21:33:00,
2013-04-05 17:38:00,35.3,15.1,30.14,NNW,333,0.0,3.0,43,0.00,,CLR,0.00,VWS V14.01,2013-04-05 21:38:00,
2013-04-05 17:43:00,35.5,15.2,30.14,West,278,0.0,3.0,43,0.00,,CLR,0.00,VWS V14.01,2013-04-05 21:43:00,
2013-04-05 17:48:00,35.5,15.2,30.14,WSW,254,0.0,3.0,43,0.00,,CLR,0.00,VWS V14.01,2013-04-05 21:48:00,
2013-04-05 17:53:00,35.5,15.2,30.14,NW,315,0.0,3.0,43,0.00,,CLR,0.00,VWS V14.01,2013-04-05 21:53:00,
2013-04-05 17:58:00,35.2,15.0,30.14,SW,219,0.0,3.0,43,0.00,,CLR,0.00,VWS V14.01,2013-04-05 21:58:00,
2013-04-05 18:04:00,34.7,15.0,30.14,WSW,251,4.0,4.0,44,0.00,,CLR,0.00,VWS V14.01,2013-04-05 22:04:00,
2013-04-05 18:09:00,34.7,16.0,30.14,NNW,337,0.0,3.0,46,0.00,,CLR,0.00,VWS V14.01,2013-04-05 22:09:00,
2013-04-05 18:14:00,34.4,15.8,30.14,NW,311,0.0,3.0,46,0.00,,CLR,0.00,VWS V14.01,2013-04-05 22:14:00,
2013-04-05 18:19:00,34.3,15.7,30.15,NW,306,0.0,3.0,46,0.00,,CLR,0.00,VWS V14.01,2013-04-05 22:19:00,
2013-04-05 18:24:00,34.3,15.7,30.15,NW,306,0.0,3.0,46,0.00,,CLR,0.00,VWS V14.01,2013-04-05 22:24:00,
2013-04-05 18:29:00,33.8,15.2,30.15,NW,306,0.0,3.0,46,0.00,,CLR,0.00,VWS V14.01,2013-04-05 22:29:00,
2013-04-05 18:34:00,33.8,16.7,30.15,West,263,0.0,3.0,49,0.00,,CLR,0.00,VWS V14.01,2013-04-05 22:34:00,
2013-04-05 18:39:00,33.1,16.0,30.15,West,270,0.0,3.0,49,0.00,,CLR,0.00,VWS V14.01,2013-04-05 22:39:00,
2013-04-05 18:44:00,32.8,15.8,30.15,NW,315,0.0,3.0,49,0.00,,CLR,0.00,VWS V14.01,2013-04-05 22:44:00,
2013-04-05 18:49:00,32.8,15.8,30.15,WNW,284,0.0,3.0,49,0.00,,CLR,0.00,VWS V14.01,2013-04-05 22:49:00,
2013-04-05 18:54:00,32.5,15.5,30.15,West,275,0.0,3.0,49,0.00,,CLR,0.00,VWS V14.01,2013-04-05 22:54:00,
2013-04-05 19:00:00,32.4,15.4,30.15,SW,234,0.0,3.0,49,0.00,,CLR,0.00,VWS V14.01,2013-04-05 23:00:00,
2013-04-05 19:05:00,32.2,15.2,30.15,WSW,250,0.0,3.0,49,0.00,,CLR,0.00,VWS V14.01,2013-04-05 23:05:00,
2013-04-05 19:10:00,32.1,15.1,30.15,WSW,250,0.0,3.0,49,0.00,,CLR,0.00,VWS V14.01,2013-04-05 23:10:00,
2013-04-05 19:15:00,31.9,16.7,30.15,SW,232,0.0,3.0,53,0.00,,CLR,0.00,VWS V14.01,2013-04-05 23:15:00,
2013-04-05 19:20:00,31.6,16.5,30.15,WSW,246,0.0,3.0,53,0.00,,CLR,0.00,VWS V14.01,2013-04-05 23:20:00,
2013-04-05 19:25:00,31.2,16.9,30.15,SW,236,0.0,3.0,55,0.00,,CLR,0.00,VWS V14.01,2013-04-05 23:25:00,
2013-04-05 19:30:00,31.2,16.9,30.15,WSW,240,0.0,3.0,55,0.00,,CLR,0.00,VWS V14.01,2013-04-05 23:30:00,
2013-04-05 19:35:00,30.7,16.5,30.15,WSW,239,0.0,3.0,55,0.00,,CLR,0.00,VWS V14.01,2013-04-05 23:35:00,
2013-04-05 19:40:00,30.6,16.4,30.15,SW,230,0.0,3.0,55,0.00,,CLR,0.00,VWS V14.01,2013-04-05 23:40:00,
2013-04-05 19:45:00,30.4,17.0,30.15,SW,232,0.0,3.0,57,0.00,,CLR,0.00,VWS V14.01,2013-04-05 23:45:00,
2013-04-05 19:50:00,30.1,16.7,30.15,WSW,247,0.0,3.0,57,0.00,,CLR,0.00,VWS V14.01,2013-04-05 23:50:00,
2013-04-05 19:55:00,30.0,17.0,30.15,WSW,251,0.0,3.0,58,0.00,,CLR,0.00,VWS V14.01,2013-04-05 23:55:00,
2013-04-05 20:00:00,29.8,16.8,30.15,WSW,250,0.0,3.0,58,0.00,,CLR,0.00,VWS V14.01,2013-04-06 00:00:00,
2013-04-05 20:05:00,29.7,17.1,30.15,WSW,248,0.0,3.0,59,0.00,,CLR,0.00,VWS V14.01,2013-04-06 00:05:00,
2013-04-05 20:10:00,29.5,17.0,30.15,WSW,248,0.0,3.0,59,0.00,,CLR,0.00,VWS V14.01,2013-04-06 00:10:00,
2013-04-05 20:16:00,29.4,17.2,30.15,WSW,250,0.0,3.0,60,0.00,,CLR,0.00,VWS V14.01,2013-04-06 00:16:00,
2013-04-05 20:21:00,29.4,17.2,30.15,WSW,248,0.0,3.0,60,0.00,,CLR,0.00,VWS V14.01,2013-04-06 00:21:00,
2013-04-05 20:26:00,29.1,17.0,30.15,WSW,248,0.0,3.0,60,0.00,,CLR,0.00,VWS V14.01,2013-04-06 00:26:00,
2013-04-05 20:31:00,29.1,17.0,30.15,WSW,248,0.0,3.0,60,0.00,,CLR,0.00,VWS V14.01,2013-04-06 00:31:00,
2013-04-05 20:36:00,28.7,16.6,30.15,WSW,248,0.0,3.0,60,0.00,,CLR,0.00,VWS V14.01,2013-04-06 00:36:00,
2013-04-05 20:41:00,28.7,17.3,30.15,WSW,248,0.0,3.0,62,0.00,,CLR,0.00,VWS V14.01,2013-04-06 00:41:00,
2013-04-05 20:47:00,28.5,17.1,30.15,WSW,248,0.0,3.0,62,0.00,,CLR,0.00,VWS V14.01,2013-04-06 00:47:00,
2013-04-05 20:52:00,28.4,17.1,30.15,WSW,248,0.0,3.0,62,0.00,,CLR,0.00,VWS V14.01,2013-04-06 00:52:00,
2013-04-05 20:57:00,28.2,16.9,30.15,WSW,248,0.0,3.0,62,0.00,,CLR,0.00,VWS V14.01,2013-04-06 00:57:00,
2013-04-05 21:02:00,28.1,17.1,30.16,WSW,248,0.0,3.0,63,0.00,,CLR,0.00,VWS V14.01,2013-04-06 01:02:00,
2013-04-05 21:07:00,28.1,17.1,30.16,WSW,248,0.0,3.0,63,0.00,,CLR,0.00,VWS V14.01,2013-04-06 01:07:00,
2013-04-05 21:12:00,27.8,16.9,30.16,WSW,248,0.0,3.0,63,0.00,,CLR,0.00,VWS V14.01,2013-04-06 01:12:00,
2013-04-05 21:17:00,27.8,16.9,30.16,WSW,248,0.0,3.0,63,0.00,,CLR,0.00,VWS V14.01,2013-04-06 01:17:00,
2013-04-05 21:22:00,27.6,16.7,30.16,WSW,248,0.0,3.0,63,0.00,,CLR,0.00,VWS V14.01,2013-04-06 01:22:00,
2013-04-05 21:27:00,27.6,16.7,30.16,WSW,248,0.0,3.0,63,0.00,,CLR,0.00,VWS V14.01,2013-04-06 01:27:00,
2013-04-05 21:32:00,27.5,16.6,30.16,WSW,248,0.0,3.0,63,0.00,,CLR,0.00,VWS V14.01,2013-04-06 01:32:00,
2013-04-05 21:37:00,27.5,16.6,30.16,WSW,248,0.0,3.0,63,0.00,,CLR,0.00,VWS V14.01,2013-04-06 01:37:00,
2013-04-05 21:43:00,27.5,16.6,30.16,WSW,248,0.0,3.0,63,0.00,,CLR,0.00,VWS V14.01,2013-04-06 01:43:00,
2013-04-05 21:48:00,27.5,16.6,30.16,WSW,248,0.0,3.0,63,0.00,,CLR,0.00,VWS V14.01,2013-04-06 01:48:00,
2013-04-05 21:53:00,27.5,16.6,30.16,WSW,248,0.0,3.0,63,0.00,,CLR,0.00,VWS V14.01,2013-04-06 01:53:00,
2013-04-05 21:58:00,27.5,16.6,30.16,WSW,248,0.0,3.0,63,0.00,,CLR,0.00,VWS V14.01,2013-04-06 01:58:00,
2013-04-05 22:03:00,27.2,16.3,30.16,WSW,248,0.0,3.0,63,0.00,,CLR,0.00,VWS V14.01,2013-04-06 02:03:00,
2013-04-05 22:08:00,27.2,16.3,30.16,WSW,248,0.0,3.0,63,0.00,,CLR,0.00,VWS V14.01,2013-04-06 02:08:00,
2013-04-05 22:13:00,27.2,16.3,30.16,WSW,248,0.0,3.0,63,0.00,,CLR,0.00,VWS V14.01,2013-04-06 02:13:00,
2013-04-05 22:19:00,27.2,16.3,30.15,WSW,248,0.0,3.0,63,0.00,,CLR,0.00,VWS V14.01,2013-04-06 02:19:00,
2013-04-05 22:24:00,27.2,16.3,30.15,WSW,248,0.0,3.0,63,0.00,,CLR,0.00,VWS V14.01,2013-04-06 02:24:00,
2013-04-05 22:29:00,26.6,15.7,30.15,WSW,248,0.0,3.0,63,0.00,,CLR,0.00,VWS V14.01,2013-04-06 02:29:00,
2013-04-05 22:34:00,26.6,18.1,30.16,WSW,248,0.0,3.0,70,0.00,,CLR,0.00,VWS V14.01,2013-04-06 02:34:00,
2013-04-05 22:40:00,26.6,18.1,30.16,WSW,248,0.0,3.0,70,0.00,,CLR,0.00,VWS V14.01,2013-04-06 02:40:00,
2013-04-05 22:45:00,26.3,17.9,30.16,WSW,248,0.0,3.0,70,0.00,,CLR,0.00,VWS V14.01,2013-04-06 02:45:00,
2013-04-05 22:50:00,26.3,17.9,30.16,WSW,248,0.0,3.0,70,0.00,,CLR,0.00,VWS V14.01,2013-04-06 02:50:00,
2013-04-05 22:55:00,26.3,17.9,30.16,WSW,248,0.0,3.0,70,0.00,,CLR,0.00,VWS V14.01,2013-04-06 02:55:00,
2013-04-05 23:00:00,25.7,17.3,30.16,WSW,248,0.0,3.0,70,0.00,,CLR,0.00,VWS V14.01,2013-04-06 03:00:00,
2013-04-05 23:05:00,25.7,17.3,30.16,WSW,248,0.0,3.0,70,0.00,,CLR,0.00,VWS V14.01,2013-04-06 03:05:00,
2013-04-05 23:10:00,25.7,17.3,30.16,WSW,248,0.0,3.0,70,0.00,,CLR,0.00,VWS V14.01,2013-04-06 03:10:00,
2013-04-05 23:15:00,25.7,17.3,30.16,WSW,248,0.0,3.0,70,0.00,,CLR,0.00,VWS V14.01,2013-04-06 03:15:00,
2013-04-05 23:20:00,25.7,17.3,30.16,WSW,248,0.0,3.0,70,0.00,,CLR,0.00,VWS V14.01,2013-04-06 03:20:00,
2013-04-05 23:25:00,25.7,17.3,30.16,WSW,248,0.0,3.0,70,0.00,,CLR,0.00,VWS V14.01,2013-04-06 03:25:00,
2013-04-05 23:30:00,25.0,16.6,30.15,WSW,248,0.0,3.0,70,0.00,,CLR,0.00,VWS V14.01,2013-04-06 03:30:00,
2013-04-05 23:35:00,25.0,16.6,30.15,WSW,248,0.0,3.0,70,0.00,,CLR,0.00,VWS V14.01,2013-04-06 03:35:00,
2013-04-05 23:40:00,25.0,16.6,30.15,WSW,248,0.0,3.0,70,0.00,,CLR,0.00,VWS V14.01,2013-04-06 03:40:00,
2013-04-05 23:45:00,25.0,16.6,30.15,WSW,248,0.0,3.0,70,0.00,,CLR,0.00,VWS V14.01,2013-04-06 03:45:00,
2013-04-05 23:50:00,25.0,16.6,30.15,WSW,248,0.0,3.0,70,0.00,,CLR,0.00,VWS V14.01,2013-04-06 03:50:00,
2013-04-05 23:56:00,25.0,16.6,30.15,WSW,248,0.0,3.0,70,0.00,,CLR,0.00,VWS V14.01,2013-04-06 03:56:00,